Angora, Minnesota
Current Conditions -  °F | °C
As of 1:55 AM on Friday 31 Oct 2014 (Local Time) from KCQM Reporting Station
Overcast Overcast  
Wind Chill: 18°   Ceiling: 2700
Heat Index: 27°   Visibility: 10mi
Dew Point: 19°   Wind: 8mph
Humidity: 74%   Direction: 350°N
Pressure: 30.45"   Gusts: NA
Location:  47.77°N, 92.63°W
Report Text: KCQM 310655Z AUTO 35007KT 10SM BKN027 OVC033 M03/M07 A3045 RMK AO2
Loading
Personal Weather Stations






























Interactive Weather Map New forecast layout! Learn more

10-Day Weather Forecast

Advertisements
Track Severe Weather on mobile